sensor_id;sensor_type;location;lat;lon;timestamp;pressure;altitude;pressure_sealevel;temperature;humidity
33506;BME280;19843;51.040;13.782;2023-01-25T00:02:09;102394.19;;;3.04;94.02
33506;BME280;19843;51.040;13.782;2023-01-25T00:04:37;102390.63;;;3.19;93.82
33506;BME280;19843;51.040;13.782;2023-01-25T00:07:04;102386.25;;;3.11;94.29
33506;BME280;19843;51.040;13.782;2023-01-25T00:09:32;102386.13;;;3.31;93.37
33506;BME280;19843;51.040;13.782;2023-01-25T00:12:00;102392.38;;;3.23;93.27
33506;BME280;19843;51.040;13.782;2023-01-25T00:14:28;102375.63;;;3.10;93.40
33506;BME280;19843;51.040;13.782;2023-01-25T00:16:55;102380.03;;;3.11;93.68
33506;BME280;19843;51.040;13.782;2023-01-25T00:19:23;102382.66;;;3.19;93.67
33506;BME280;19843;51.040;13.782;2023-01-25T00:21:50;102382.63;;;3.28;92.53
33506;BME280;19843;51.040;13.782;2023-01-25T00:24:17;102382.66;;;3.25;92.38
33506;BME280;19843;51.040;13.782;2023-01-25T00:26:48;102374.63;;;3.32;92.02
33506;BME280;19843;51.040;13.782;2023-01-25T00:29:17;102379.88;;;3.40;91.43
33506;BME280;19843;51.040;13.782;2023-01-25T00:31:50;102371.09;;;3.35;90.67
33506;BME280;19843;51.040;13.782;2023-01-25T00:34:43;102379.91;;;3.37;90.30
33506;BME280;19843;51.040;13.782;2023-01-25T00:37:14;102379.94;;;3.32;90.44
33506;BME280;19843;51.040;13.782;2023-01-25T00:39:45;102376.34;;;3.38;89.48
33506;BME280;19843;51.040;13.782;2023-01-25T00:42:14;102386.16;;;3.30;89.67
33506;BME280;19843;51.040;13.782;2023-01-25T00:44:43;102382.66;;;3.25;89.67
33506;BME280;19843;51.040;13.782;2023-01-25T00:47:10;102376.44;;;3.24;90.41
33506;BME280;19843;51.040;13.782;2023-01-25T00:49:40;102379.06;;;3.30;90.67
33506;BME280;19843;51.040;13.782;2023-01-25T00:52:08;102377.34;;;3.25;90.83
33506;BME280;19843;51.040;13.782;2023-01-25T00:54:36;102373.81;;;3.20;91.10
33506;BME280;19843;51.040;13.782;2023-01-25T00:57:03;102375.53;;;3.27;90.22
33506;BME280;19843;51.040;13.782;2023-01-25T00:59:32;102376.44;;;3.27;90.31
33506;BME280;19843;51.040;13.782;2023-01-25T01:02:02;102365.81;;;3.29;90.21
33506;BME280;19843;51.040;13.782;2023-01-25T01:04:30;102375.59;;;3.21;90.01
33506;BME280;19843;51.040;13.782;2023-01-25T01:06:57;102370.28;;;3.21;90.48
33506;BME280;19843;51.040;13.782;2023-01-25T01:09:25;102368.47;;;3.30;89.61
33506;BME280;19843;51.040;13.782;2023-01-25T01:11:53;102372.88;;;3.27;89.21
33506;BME280;19843;51.040;13.782;2023-01-25T01:14:20;102368.50;;;3.23;88.43
33506;BME280;19843;51.040;13.782;2023-01-25T01:16:48;102360.59;;;3.18;88.38
33506;BME280;19843;51.040;13.782;2023-01-25T01:19:17;102360.59;;;3.13;87.93
33506;BME280;19843;51.040;13.782;2023-01-25T01:21:44;102370.31;;;3.13;87.84
33506;BME280;19843;51.040;13.782;2023-01-25T01:24:12;102360.59;;;3.12;88.47
33506;BME280;19843;51.040;13.782;2023-01-25T01:26:39;102357.94;;;3.17;88.91
33506;BME280;19843;51.040;13.782;2023-01-25T01:29:07;102358.84;;;3.09;89.68
33506;BME280;19843;51.040;13.782;2023-01-25T01:31:34;102341.16;;;3.10;89.64
33506;BME280;19843;51.040;13.782;2023-01-25T01:34:02;102344.72;;;3.06;89.30
33506;BME280;19843;51.040;13.782;2023-01-25T01:36:30;102341.19;;;3.07;89.97
33506;BME280;19843;51.040;13.782;2023-01-25T01:38:58;102331.50;;;2.98;90.03
33506;BME280;19843;51.040;13.782;2023-01-25T01:41:26;102335.03;;;2.97;89.93
33506;BME280;19843;51.040;13.782;2023-01-25T01:43:53;102327.09;;;2.99;89.98
33506;BME280;19843;51.040;13.782;2023-01-25T01:46:24;102319.13;;;3.05;89.70
33506;BME280;19843;51.040;13.782;2023-01-25T01:48:55;102316.47;;;3.02;89.60
33506;BME280;19843;51.040;13.782;2023-01-25T01:51:35;102312.06;;;2.99;89.78
33506;BME280;19843;51.040;13.782;2023-01-25T01:54:08;102315.56;;;3.07;89.47
33506;BME280;19843;51.040;13.782;2023-01-25T01:56:41;102315.59;;;3.00;89.80
33506;BME280;19843;51.040;13.782;2023-01-25T01:59:10;102307.63;;;3.01;90.00
33506;BME280;19843;51.040;13.782;2023-01-25T02:01:38;102301.41;;;3.11;90.06
33506;BME280;19843;51.040;13.782;2023-01-25T02:04:07;102296.03;;;3.18;90.48
33506;BME280;19843;51.040;13.782;2023-01-25T02:06:43;102296.94;;;3.15;90.03
33506;BME280;19843;51.040;13.782;2023-01-25T02:09:13;102293.41;;;3.18;89.53
33506;BME280;19843;51.040;13.782;2023-01-25T02:11:42;102288.13;;;3.14;88.61
33506;BME280;19843;51.040;13.782;2023-01-25T02:14:09;102292.53;;;3.11;89.14
33506;BME280;19843;51.040;13.782;2023-01-25T02:16:37;102297.84;;;3.14;89.20
33506;BME280;19843;51.040;13.782;2023-01-25T02:19:06;102296.97;;;3.12;88.48
33506;BME280;19843;51.040;13.782;2023-01-25T02:21:40;102291.69;;;3.12;89.28
33506;BME280;19843;51.040;13.782;2023-01-25T02:24:15;102278.38;;;3.23;89.12
33506;BME280;19843;51.040;13.782;2023-01-25T02:26:45;102278.41;;;3.15;89.03
33506;BME280;19843;51.040;13.782;2023-01-25T02:29:13;102269.53;;;3.21;89.22
33506;BME280;19843;51.040;13.782;2023-01-25T02:31:42;102274.78;;;3.28;88.62
33506;BME280;19843;51.040;13.782;2023-01-25T02:34:10;102272.16;;;3.24;88.81
33506;BME280;19843;51.040;13.782;2023-01-25T02:36:37;102276.66;;;3.06;89.00
33506;BME280;19843;51.040;13.782;2023-01-25T02:39:08;102272.28;;;3.05;89.29
33506;BME280;19843;51.040;13.782;2023-01-25T02:41:37;102266.13;;;3.00;90.48
33506;BME280;19843;51.040;13.782;2023-01-25T02:44:09;102264.25;;;3.14;89.63
33506;BME280;19843;51.040;13.782;2023-01-25T02:46:39;102259.00;;;3.10;89.11
33506;BME280;19843;51.040;13.782;2023-01-25T02:49:08;102255.41;;;3.17;89.09
33506;BME280;19843;51.040;13.782;2023-01-25T02:51:37;102246.66;;;3.09;89.59
33506;BME280;19843;51.040;13.782;2023-01-25T02:54:07;102254.59;;;3.07;89.41
33506;BME280;19843;51.040;13.782;2023-01-25T02:56:35;102250.06;;;3.20;89.01
33506;BME280;19843;51.040;13.782;2023-01-25T02:59:03;102242.16;;;3.17;88.72
33506;BME280;19843;51.040;13.782;2023-01-25T03:01:33;102232.41;;;3.21;88.86
33506;BME280;19843;51.040;13.782;2023-01-25T03:04:00;102240.38;;;3.21;88.29
33506;BME280;19843;51.040;13.782;2023-01-25T03:06:28;102243.94;;;3.15;88.86
33506;BME280;19843;51.040;13.782;2023-01-25T03:08:55;102234.19;;;3.16;88.34
33506;BME280;19843;51.040;13.782;2023-01-25T03:11:23;102245.72;;;3.14;87.72
33506;BME280;19843;51.040;13.782;2023-01-25T03:13:50;102240.44;;;3.10;87.66
33506;BME280;19843;51.040;13.782;2023-01-25T03:16:18;102248.38;;;3.08;88.47
33506;BME280;19843;51.040;13.782;2023-01-25T03:18:47;102240.50;;;3.02;88.51
33506;BME280;19843;51.040;13.782;2023-01-25T03:21:16;102244.19;;;2.74;90.06
33506;BME280;19843;51.040;13.782;2023-01-25T03:23:45;102240.63;;;2.78;90.72
33506;BME280;19843;51.040;13.782;2023-01-25T03:26:15;102238.00;;;2.78;91.44
33506;BME280;19843;51.040;13.782;2023-01-25T03:28:43;102242.44;;;2.71;91.23
33506;BME280;19843;51.040;13.782;2023-01-25T03:31:12;102230.88;;;2.84;91.44
33506;BME280;19843;51.040;13.782;2023-01-25T03:33:41;102237.06;;;2.85;91.39
33506;BME280;19843;51.040;13.782;2023-01-25T03:36:10;102229.25;;;2.54;92.00
33506;BME280;19843;51.040;13.782;2023-01-25T03:38:37;102237.97;;;2.75;91.83
33506;BME280;19843;51.040;13.782;2023-01-25T03:41:05;102232.63;;;2.87;91.74
33506;BME280;19843;51.040;13.782;2023-01-25T03:43:33;102226.44;;;2.89;91.02
33506;BME280;19843;51.040;13.782;2023-01-25T03:46:01;102231.66;;;3.02;89.73
33506;BME280;19843;51.040;13.782;2023-01-25T03:48:28;102228.22;;;2.86;89.84
33506;BME280;19843;51.040;13.782;2023-01-25T03:50:58;102231.81;;;2.74;90.53
33506;BME280;19843;51.040;13.782;2023-01-25T03:53:27;102230.91;;;2.80;90.81
33506;BME280;19843;51.040;13.782;2023-01-25T03:55:57;102223.00;;;2.74;90.76
33506;BME280;19843;51.040;13.782;2023-01-25T03:58:25;102227.38;;;2.81;91.13
33506;BME280;19843;51.040;13.782;2023-01-25T04:00:54;102221.91;;;3.05;89.97
33506;BME280;19843;51.040;13.782;2023-01-25T04:03:22;102234.25;;;3.09;89.37
33506;BME280;19843;51.040;13.782;2023-01-25T04:05:50;102223.66;;;3.08;89.43
33506;BME280;19843;51.040;13.782;2023-01-25T04:08:18;102215.75;;;3.05;89.27
33506;BME280;19843;51.040;13.782;2023-01-25T04:10:50;102214.94;;;2.92;89.88
33506;BME280;19843;51.040;13.782;2023-01-25T04:13:19;102221.03;;;3.05;89.45
33506;BME280;19843;51.040;13.782;2023-01-25T04:15:46;102214.91;;;2.95;89.57
33506;BME280;19843;51.040;13.782;2023-01-25T04:18:14;102215.78;;;2.97;89.71
33506;BME280;19843;51.040;13.782;2023-01-25T04:20:42;102212.34;;;2.81;90.43
33506;BME280;19843;51.040;13.782;2023-01-25T04:23:09;102204.38;;;2.89;90.67
33506;BME280;19843;51.040;13.782;2023-01-25T04:25:37;102206.13;;;2.87;90.49
33506;BME280;19843;51.040;13.782;2023-01-25T04:28:06;102208.69;;;3.01;89.94
33506;BME280;19843;51.040;13.782;2023-01-25T04:30:33;102223.75;;;2.96;89.15
33506;BME280;19843;51.040;13.782;2023-01-25T04:33:02;102214.00;;;2.99;89.39
33506;BME280;19843;51.040;13.782;2023-01-25T04:35:30;102218.44;;;2.94;89.56
33506;BME280;19843;51.040;13.782;2023-01-25T04:37:58;102207.91;;;2.85;90.41
33506;BME280;19843;51.040;13.782;2023-01-25T04:40:26;102212.44;;;2.70;91.04
33506;BME280;19843;51.040;13.782;2023-01-25T04:42:53;102215.00;;;2.77;91.24
33506;BME280;19843;51.040;13.782;2023-01-25T04:45:23;102214.94;;;2.92;90.95
33506;BME280;19843;51.040;13.782;2023-01-25T04:47:55;102214.97;;;2.89;90.80
33506;BME280;19843;51.040;13.782;2023-01-25T04:50:23;102212.25;;;2.98;89.57
33506;BME280;19843;51.040;13.782;2023-01-25T04:52:51;102217.53;;;3.03;88.64
33506;BME280;19843;51.040;13.782;2023-01-25T04:55:19;102212.22;;;3.03;88.80
33506;BME280;19843;51.040;13.782;2023-01-25T04:57:48;102209.59;;;2.95;88.89
33506;BME280;19843;51.040;13.782;2023-01-25T05:00:16;102213.19;;;2.91;89.50
33506;BME280;19843;51.040;13.782;2023-01-25T05:02:45;102210.50;;;2.96;89.49
33506;BME280;19843;51.040;13.782;2023-01-25T05:05:13;102214.03;;;2.96;88.76
33506;BME280;19843;51.040;13.782;2023-01-25T05:07:40;102207.88;;;2.89;89.32
33506;BME280;19843;51.040;13.782;2023-01-25T05:10:09;102207.88;;;2.91;89.07
33506;BME280;19843;51.040;13.782;2023-01-25T05:12:37;102201.66;;;2.97;88.80
33506;BME280;19843;51.040;13.782;2023-01-25T05:15:05;102207.84;;;2.94;89.28
33506;BME280;19843;51.040;13.782;2023-01-25T05:17:33;102202.53;;;2.99;89.24
33506;BME280;19843;51.040;13.782;2023-01-25T05:20:02;102202.53;;;2.97;89.37
33506;BME280;19843;51.040;13.782;2023-01-25T05:22:30;102205.16;;;2.97;89.59
33506;BME280;19843;51.040;13.782;2023-01-25T05:24:57;102206.03;;;3.01;89.39
33506;BME280;19843;51.040;13.782;2023-01-25T05:27:27;102200.78;;;2.98;89.37
33506;BME280;19843;51.040;13.782;2023-01-25T05:29:54;102193.66;;;3.00;89.23
33506;BME280;19843;51.040;13.782;2023-01-25T05:32:22;102191.06;;;2.95;89.04
33506;BME280;19843;51.040;13.782;2023-01-25T05:34:50;102188.50;;;2.83;89.04
33506;BME280;19843;51.040;13.782;2023-01-25T05:37:20;102192.88;;;2.88;89.37
33506;BME280;19843;51.040;13.782;2023-01-25T05:39:47;102189.44;;;2.77;89.17
33506;BME280;19843;51.040;13.782;2023-01-25T05:42:16;102181.44;;;2.82;89.21
33506;BME280;19843;51.040;13.782;2023-01-25T05:44:44;102191.97;;;2.88;89.04
33506;BME280;19843;51.040;13.782;2023-01-25T05:47:15;102186.69;;;2.88;89.06
33506;BME280;19843;51.040;13.782;2023-01-25T05:49:43;102173.44;;;2.89;88.49
33506;BME280;19843;51.040;13.782;2023-01-25T05:52:12;102183.16;;;2.89;88.94
33506;BME280;19843;51.040;13.782;2023-01-25T05:54:41;102169.03;;;2.84;89.39
33506;BME280;19843;51.040;13.782;2023-01-25T05:57:09;102169.09;;;2.78;89.21
33506;BME280;19843;51.040;13.782;2023-01-25T05:59:36;102169.16;;;2.65;89.26
33506;BME280;19843;51.040;13.782;2023-01-25T06:02:04;102169.09;;;2.78;89.12
33506;BME280;19843;51.040;13.782;2023-01-25T06:04:31;102171.78;;;2.71;89.24
33506;BME280;19843;51.040;13.782;2023-01-25T06:06:59;102169.09;;;2.75;89.38
33506;BME280;19843;51.040;13.782;2023-01-25T06:09:26;102169.97;;;2.77;89.29
33506;BME280;19843;51.040;13.782;2023-01-25T06:11:55;102173.53;;;2.76;89.41
33506;BME280;19843;51.040;13.782;2023-01-25T06:14:22;102166.50;;;2.71;88.85
33506;BME280;19843;51.040;13.782;2023-01-25T06:16:50;102164.69;;;2.77;88.77
33506;BME280;19843;51.040;13.782;2023-01-25T06:19:17;102169.09;;;2.76;88.50
33506;BME280;19843;51.040;13.782;2023-01-25T06:21:44;102170.00;;;2.74;88.61
33506;BME280;19843;51.040;13.782;2023-01-25T06:24:12;102170.00;;;2.75;88.44
33506;BME280;19843;51.040;13.782;2023-01-25T06:26:39;102170.94;;;2.66;88.57
33506;BME280;19843;51.040;13.782;2023-01-25T06:29:08;102177.13;;;2.62;87.99
33506;BME280;19843;51.040;13.782;2023-01-25T06:31:36;102163.03;;;2.60;88.66
33506;BME280;19843;51.040;13.782;2023-01-25T06:34:04;102167.41;;;2.66;89.10
33506;BME280;19843;51.040;13.782;2023-01-25T06:36:33;102175.38;;;2.63;89.49
33506;BME280;19843;51.040;13.782;2023-01-25T06:39:01;102175.38;;;2.63;89.65
33506;BME280;19843;51.040;13.782;2023-01-25T06:41:28;102171.00;;;2.57;90.60
33506;BME280;19843;51.040;13.782;2023-01-25T06:43:56;102167.44;;;2.61;90.86
33506;BME280;19843;51.040;13.782;2023-01-25T06:46:24;102166.50;;;2.65;90.23
33506;BME280;19843;51.040;13.782;2023-01-25T06:48:52;102167.38;;;2.70;89.68
33506;BME280;19843;51.040;13.782;2023-01-25T06:51:19;102165.66;;;2.59;89.75
33506;BME280;19843;51.040;13.782;2023-01-25T06:53:47;102164.75;;;2.67;89.58
33506;BME280;19843;51.040;13.782;2023-01-25T06:56:16;102153.25;;;2.73;89.68
33506;BME280;19843;51.040;13.782;2023-01-25T06:58:44;102163.81;;;2.75;89.69
33506;BME280;19843;51.040;13.782;2023-01-25T07:01:13;102165.59;;;2.77;89.51
33506;BME280;19843;51.040;13.782;2023-01-25T07:03:42;102158.41;;;2.90;89.01
33506;BME280;19843;51.040;13.782;2023-01-25T07:06:10;102147.81;;;2.90;89.05
33506;BME280;19843;51.040;13.782;2023-01-25T07:08:38;102149.66;;;2.80;89.19
33506;BME280;19843;51.040;13.782;2023-01-25T07:11:07;102146.09;;;2.84;88.38
33506;BME280;19843;51.040;13.782;2023-01-25T07:13:39;102146.94;;;2.89;88.65
33506;BME280;19843;51.040;13.782;2023-01-25T07:16:10;102138.13;;;2.89;88.43
33506;BME280;19843;51.040;13.782;2023-01-25T07:18:38;102138.13;;;2.86;88.90
33506;BME280;19843;51.040;13.782;2023-01-25T07:21:09;102138.13;;;2.89;88.80
33506;BME280;19843;51.040;13.782;2023-01-25T07:23:37;102131.06;;;2.86;89.34
33506;BME280;19843;51.040;13.782;2023-01-25T07:26:05;102125.75;;;2.88;88.63
33506;BME280;19843;51.040;13.782;2023-01-25T07:28:33;102131.94;;;2.87;88.69
33506;BME280;19843;51.040;13.782;2023-01-25T07:31:04;102128.38;;;2.91;88.17
33506;BME280;19843;51.040;13.782;2023-01-25T07:33:32;102125.75;;;2.91;88.09
33506;BME280;19843;51.040;13.782;2023-01-25T07:36:00;102119.63;;;2.77;88.75
33506;BME280;19843;51.040;13.782;2023-01-25T07:38:29;102113.41;;;2.88;88.64
33506;BME280;19843;51.040;13.782;2023-01-25T07:40:56;102113.41;;;2.87;88.42
33506;BME280;19843;51.040;13.782;2023-01-25T07:43:24;102116.03;;;2.87;88.14
33506;BME280;19843;51.040;13.782;2023-01-25T07:45:52;102105.44;;;2.87;88.13
33506;BME280;19843;51.040;13.782;2023-01-25T07:48:19;102108.91;;;2.95;88.17
33506;BME280;19843;51.040;13.782;2023-01-25T07:50:47;102115.13;;;2.91;87.65
33506;BME280;19843;51.040;13.782;2023-01-25T07:53:19;102104.56;;;2.86;88.09
33506;BME280;19843;51.040;13.782;2023-01-25T07:55:48;102107.56;;;2.36;89.99
33506;BME280;19843;51.040;13.782;2023-01-25T07:58:15;102096.97;;;2.39;91.15
33506;BME280;19843;51.040;13.782;2023-01-25T08:00:43;102095.09;;;2.53;90.73
33506;BME280;19843;51.040;13.782;2023-01-25T08:03:10;102093.31;;;2.55;90.72
33506;BME280;19843;51.040;13.782;2023-01-25T08:05:43;102091.53;;;2.57;90.85
33506;BME280;19843;51.040;13.782;2023-01-25T08:08:10;102092.28;;;2.75;90.10
33506;BME280;19843;51.040;13.782;2023-01-25T08:10:38;102086.03;;;2.83;89.06
33506;BME280;19843;51.040;13.782;2023-01-25T08:13:07;102087.06;;;2.67;90.43
33506;BME280;19843;51.040;13.782;2023-01-25T08:15:34;102086.94;;;2.79;90.04
33506;BME280;19843;51.040;13.782;2023-01-25T08:18:02;102082.56;;;2.80;89.50
33506;BME280;19843;51.040;13.782;2023-01-25T08:20:32;102078.13;;;2.82;89.58
33506;BME280;19843;51.040;13.782;2023-01-25T08:22:59;102082.59;;;2.74;89.90
33506;BME280;19843;51.040;13.782;2023-01-25T08:25:26;102081.59;;;2.88;89.63
33506;BME280;19843;51.040;13.782;2023-01-25T08:27:54;102081.44;;;3.04;88.42
33506;BME280;19843;51.040;13.782;2023-01-25T08:30:23;102078.13;;;2.80;88.99
33506;BME280;19843;51.040;13.782;2023-01-25T08:32:50;102083.38;;;2.86;88.86
33506;BME280;19843;51.040;13.782;2023-01-25T08:35:17;102086.81;;;2.98;88.96
33506;BME280;19843;51.040;13.782;2023-01-25T08:37:46;102074.41;;;3.01;88.70
33506;BME280;19843;51.040;13.782;2023-01-25T08:40:13;102087.13;;;2.59;89.96
33506;BME280;19843;51.040;13.782;2023-01-25T08:42:41;102086.22;;;2.62;90.28
33506;BME280;19843;51.040;13.782;2023-01-25T08:45:09;102089.88;;;2.44;91.40
33506;BME280;19843;51.040;13.782;2023-01-25T08:47:38;102082.72;;;2.52;91.97
33506;BME280;19843;51.040;13.782;2023-01-25T08:50:06;102084.28;;;2.81;90.65
33506;BME280;19843;51.040;13.782;2023-01-25T08:52:35;102081.72;;;2.70;90.30
33506;BME280;19843;51.040;13.782;2023-01-25T08:55:03;102079.19;;;2.59;91.24
33506;BME280;19843;51.040;13.782;2023-01-25T08:57:30;102073.09;;;2.43;91.86
33506;BME280;19843;51.040;13.782;2023-01-25T08:59:57;102073.94;;;2.48;91.57
33506;BME280;19843;51.040;13.782;2023-01-25T09:02:25;102068.72;;;2.41;91.64
33506;BME280;19843;51.040;13.782;2023-01-25T09:04:53;102070.38;;;2.51;91.54
33506;BME280;19843;51.040;13.782;2023-01-25T09:07:21;102071.16;;;2.68;90.74
33506;BME280;19843;51.040;13.782;2023-01-25T09:09:48;102063.25;;;2.61;90.87
33506;BME280;19843;51.040;13.782;2023-01-25T09:12:16;102059.91;;;2.37;91.95
33506;BME280;19843;51.040;13.782;2023-01-25T09:14:43;102067.75;;;2.49;92.72
33506;BME280;19843;51.040;13.782;2023-01-25T09:17:11;102060.53;;;2.73;91.47
33506;BME280;19843;51.040;13.782;2023-01-25T09:19:38;102058.59;;;2.93;90.66
33506;BME280;19843;51.040;13.782;2023-01-25T09:22:08;102054.94;;;3.07;89.50
33506;BME280;19843;51.040;13.782;2023-01-25T09:24:36;102054.97;;;3.01;89.18
33506;BME280;19843;51.040;13.782;2023-01-25T09:27:03;102054.25;;;2.85;90.10
33506;BME280;19843;51.040;13.782;2023-01-25T09:29:31;102045.38;;;2.89;90.53
33506;BME280;19843;51.040;13.782;2023-01-25T09:31:58;102045.34;;;2.92;90.60
33506;BME280;19843;51.040;13.782;2023-01-25T09:34:26;102042.59;;;3.01;88.96
33506;BME280;19843;51.040;13.782;2023-01-25T09:36:53;102044.38;;;2.99;88.68
33506;BME280;19843;51.040;13.782;2023-01-25T09:39:22;102043.94;;;2.48;91.57
33506;BME280;19843;51.040;13.782;2023-01-25T09:42:05;102042.94;;;2.66;91.85
33506;BME280;19843;51.040;13.782;2023-01-25T09:44:51;102037.47;;;2.84;90.72
33506;BME280;19843;51.040;13.782;2023-01-25T09:47:28;102038.25;;;2.96;90.09
33506;BME280;19843;51.040;13.782;2023-01-25T09:50:14;102031.38;;;2.71;90.11
33506;BME280;19843;51.040;13.782;2023-01-25T09:53:15;102038.19;;;3.00;89.66
33506;BME280;19843;51.040;13.782;2023-01-25T09:55:50;102038.16;;;3.05;89.21
33506;BME280;19843;51.040;13.782;2023-01-25T09:58:21;102043.38;;;3.14;89.00
33506;BME280;19843;51.040;13.782;2023-01-25T10:00:54;102037.63;;;2.64;89.80
33506;BME280;19843;51.040;13.782;2023-01-25T10:03:30;102042.09;;;2.56;90.84
33506;BME280;19843;51.040;13.782;2023-01-25T10:06:01;102035.81;;;2.69;91.21
33506;BME280;19843;51.040;13.782;2023-01-25T10:08:31;102034.66;;;3.01;89.28
33506;BME280;19843;51.040;13.782;2023-01-25T10:11:10;102028.53;;;2.96;89.18
33506;BME280;19843;51.040;13.782;2023-01-25T10:13:40;102036.53;;;2.90;89.11
33506;BME280;19843;51.040;13.782;2023-01-25T10:16:12;102027.06;;;2.58;91.40
33506;BME280;19843;51.040;13.782;2023-01-25T10:19:02;102028.75;;;2.70;90.94
33506;BME280;19843;51.040;13.782;2023-01-25T10:21:34;102027.88;;;2.69;90.88
33506;BME280;19843;51.040;13.782;2023-01-25T10:24:29;102019.75;;;2.88;90.43
33506;BME280;19843;51.040;13.782;2023-01-25T10:27:13;102016.13;;;2.98;89.60
33506;BME280;19843;51.040;13.782;2023-01-25T10:29:43;102013.72;;;2.74;90.64
33506;BME280;19843;51.040;13.782;2023-01-25T10:32:16;102012.88;;;2.67;91.16
33506;BME280;19843;51.040;13.782;2023-01-25T10:34:47;102011.19;;;2.60;90.73
33506;BME280;19843;51.040;13.782;2023-01-25T10:37:24;101997.84;;;2.69;90.29
33506;BME280;19843;51.040;13.782;2023-01-25T10:39:56;102001.28;;;2.82;90.75
33506;BME280;19843;51.040;13.782;2023-01-25T10:42:29;101988.25;;;2.57;90.19
33506;BME280;19843;51.040;13.782;2023-01-25T10:44:57;101989.94;;;2.66;90.51
33506;BME280;19843;51.040;13.782;2023-01-25T10:47:27;101979.22;;;2.80;90.48
33506;BME280;19843;51.040;13.782;2023-01-25T10:49:56;101977.53;;;2.72;90.25
33506;BME280;19843;51.040;13.782;2023-01-25T10:52:25;101971.31;;;2.74;89.14
33506;BME280;19843;51.040;13.782;2023-01-25T10:55:12;101978.22;;;2.90;89.08
33506;BME280;19843;51.040;13.782;2023-01-25T10:57:48;101970.16;;;3.02;88.18
33506;BME280;19843;51.040;13.782;2023-01-25T11:00:23;101968.22;;;3.15;87.17
33506;BME280;19843;51.040;13.782;2023-01-25T11:03:19;101966.34;;;3.26;86.56
33506;BME280;19843;51.040;13.782;2023-01-25T11:05:52;101953.19;;;3.17;86.63
33506;BME280;19843;51.040;13.782;2023-01-25T11:08:23;101952.22;;;3.27;86.63
33506;BME280;19843;51.040;13.782;2023-01-25T11:10:52;101940.78;;;3.21;86.45
33506;BME280;19843;51.040;13.782;2023-01-25T11:13:23;101947.03;;;3.15;87.25
33506;BME280;19843;51.040;13.782;2023-01-25T11:16:13;101941.81;;;3.09;87.12
33506;BME280;19843;51.040;13.782;2023-01-25T11:18:49;101946.56;;;2.78;87.59
33506;BME280;19843;51.040;13.782;2023-01-25T11:21:18;101931.41;;;2.90;88.18
33506;BME280;19843;51.040;13.782;2023-01-25T11:24:14;101935.72;;;2.99;87.25
33506;BME280;19843;51.040;13.782;2023-01-25T11:26:42;101923.44;;;2.90;87.02
33506;BME280;19843;51.040;13.782;2023-01-25T11:29:12;101925.06;;;3.05;86.13
33506;BME280;19843;51.040;13.782;2023-01-25T11:31:42;101927.88;;;2.91;86.50
33506;BME280;19843;51.040;13.782;2023-01-25T11:34:13;101916.63;;;2.69;87.91
33506;BME280;19843;51.040;13.782;2023-01-25T11:36:54;101915.69;;;2.72;88.49
33506;BME280;19843;51.040;13.782;2023-01-25T11:39:44;101904.94;;;2.86;88.12
33506;BME280;19843;51.040;13.782;2023-01-25T11:42:25;101906.72;;;2.85;88.52
33506;BME280;19843;51.040;13.782;2023-01-25T11:45:31;101900.00;;;2.55;88.47
33506;BME280;19843;51.040;13.782;2023-01-25T11:48:17;101888.44;;;2.61;88.28
33506;BME280;19843;51.040;13.782;2023-01-25T11:50:59;101883.13;;;2.64;87.86
33506;BME280;19843;51.040;13.782;2023-01-25T11:53:39;101883.88;;;2.77;88.31
33506;BME280;19843;51.040;13.782;2023-01-25T11:56:20;101883.00;;;2.76;88.13
33506;BME280;19843;51.040;13.782;2023-01-25T11:58:59;101869.03;;;2.60;88.74
33506;BME280;19843;51.040;13.782;2023-01-25T12:01:41;101872.59;;;2.59;89.32
33506;BME280;19843;51.040;13.782;2023-01-25T12:04:38;101859.91;;;2.86;88.04
33506;BME280;19843;51.040;13.782;2023-01-25T12:07:18;101850.06;;;2.97;87.88
33506;BME280;19843;51.040;13.782;2023-01-25T12:09:59;101845.38;;;3.19;87.42
33506;BME280;19843;51.040;13.782;2023-01-25T12:12:38;101832.25;;;3.08;87.11
33506;BME280;19843;51.040;13.782;2023-01-25T12:15:29;101830.31;;;3.23;85.89
33506;BME280;19843;51.040;13.782;2023-01-25T12:18:10;101819.97;;;3.01;85.76
33506;BME280;19843;51.040;13.782;2023-01-25T12:20:59;101815.66;;;2.94;86.57
33506;BME280;19843;51.040;13.782;2023-01-25T12:23:35;101807.78;;;2.88;86.95
33506;BME280;19843;51.040;13.782;2023-01-25T12:26:11;101805.31;;;2.76;86.81
33506;BME280;19843;51.040;13.782;2023-01-25T12:28:46;101806.94;;;2.86;86.81
33506;BME280;19843;51.040;13.782;2023-01-25T12:31:18;101803.09;;;3.08;86.45
33506;BME280;19843;51.040;13.782;2023-01-25T12:33:53;101799.50;;;3.14;85.89
33506;BME280;19843;51.040;13.782;2023-01-25T12:36:26;101795.22;;;3.04;86.15
33506;BME280;19843;51.040;13.782;2023-01-25T12:38:57;101787.06;;;3.19;85.77
33506;BME280;19843;51.040;13.782;2023-01-25T12:41:34;101783.19;;;3.42;84.66
33506;BME280;19843;51.040;13.782;2023-01-25T12:44:11;101779.88;;;3.26;85.19
33506;BME280;19843;51.040;13.782;2023-01-25T12:46:44;101779.59;;;3.46;84.85
33506;BME280;19843;51.040;13.782;2023-01-25T12:49:24;101777.38;;;3.18;84.30
33506;BME280;19843;51.040;13.782;2023-01-25T12:51:53;101774.25;;;2.88;85.25
33506;BME280;19843;51.040;13.782;2023-01-25T12:54:27;101766.97;;;3.01;85.29
33506;BME280;19843;51.040;13.782;2023-01-25T12:57:06;101766.78;;;3.17;85.01
33506;BME280;19843;51.040;13.782;2023-01-25T12:59:41;101771.03;;;3.27;84.60
33506;BME280;19843;51.040;13.782;2023-01-25T13:02:25;101771.28;;;3.08;84.55
33506;BME280;19843;51.040;13.782;2023-01-25T13:05:02;101773.50;;;2.76;84.94
33506;BME280;19843;51.040;13.782;2023-01-25T13:07:42;101766.78;;;2.50;86.67
33506;BME280;19843;51.040;13.782;2023-01-25T13:10:15;101757.81;;;2.60;87.91